sensor_id;sensor_type;location;lat;lon;timestamp;P1;durP1;ratioP1;P2;durP2;ratioP2
60432;SDS011;46286;48.098;11.590;2022-11-13T00:01:51;71.32;;;19.25;;
60432;SDS011;46286;48.098;11.590;2022-11-13T00:04:17;84.32;;;18.90;;
60432;SDS011;46286;48.098;11.590;2022-11-13T00:06:42;84.78;;;21.13;;
60432;SDS011;46286;48.098;11.590;2022-11-13T00:09:11;65.18;;;19.90;;
60432;SDS011;46286;48.098;11.590;2022-11-13T00:11:37;80.47;;;20.98;;
60432;SDS011;46286;48.098;11.590;2022-11-13T00:14:03;58.05;;;19.42;;
60432;SDS011;46286;48.098;11.590;2022-11-13T00:16:28;69.85;;;21.50;;
60432;SDS011;46286;48.098;11.590;2022-11-13T00:18:54;78.25;;;21.77;;
60432;SDS011;46286;48.098;11.590;2022-11-13T00:21:21;99.90;;;21.42;;
60432;SDS011;46286;48.098;11.590;2022-11-13T00:23:51;92.53;;;21.95;;
60432;SDS011;46286;48.098;11.590;2022-11-13T00:26:21;92.75;;;19.50;;
60432;SDS011;46286;48.098;11.590;2022-11-13T00:28:56;69.43;;;19.17;;
60432;SDS011;46286;48.098;11.590;2022-11-13T00:31:23;67.40;;;19.90;;
60432;SDS011;46286;48.098;11.590;2022-11-13T00:33:49;87.20;;;21.42;;
60432;SDS011;46286;48.098;11.590;2022-11-13T00:36:16;45.15;;;18.23;;
60432;SDS011;46286;48.098;11.590;2022-11-13T00:38:43;59.13;;;18.83;;
60432;SDS011;46286;48.098;11.590;2022-11-13T00:41:09;65.07;;;18.45;;
60432;SDS011;46286;48.098;11.590;2022-11-13T00:43:35;82.15;;;18.25;;
60432;SDS011;46286;48.098;11.590;2022-11-13T00:46:00;62.15;;;19.23;;
60432;SDS011;46286;48.098;11.590;2022-11-13T00:48:26;46.08;;;18.95;;
60432;SDS011;46286;48.098;11.590;2022-11-13T00:50:51;120.88;;;21.60;;
60432;SDS011;46286;48.098;11.590;2022-11-13T00:53:17;63.00;;;20.02;;
60432;SDS011;46286;48.098;11.590;2022-11-13T00:55:43;62.33;;;19.17;;
60432;SDS011;46286;48.098;11.590;2022-11-13T00:58:09;64.75;;;18.38;;
60432;SDS011;46286;48.098;11.590;2022-11-13T01:00:36;107.03;;;19.02;;
60432;SDS011;46286;48.098;11.590;2022-11-13T01:03:02;66.05;;;17.73;;
60432;SDS011;46286;48.098;11.590;2022-11-13T01:05:27;97.85;;;18.42;;
60432;SDS011;46286;48.098;11.590;2022-11-13T01:07:53;67.45;;;18.08;;
60432;SDS011;46286;48.098;11.590;2022-11-13T01:10:19;82.00;;;17.65;;
60432;SDS011;46286;48.098;11.590;2022-11-13T01:12:45;97.80;;;19.95;;
60432;SDS011;46286;48.098;11.590;2022-11-13T01:15:11;67.47;;;19.67;;
60432;SDS011;46286;48.098;11.590;2022-11-13T01:17:37;50.53;;;19.10;;
60432;SDS011;46286;48.098;11.590;2022-11-13T01:20:02;58.38;;;18.48;;
60432;SDS011;46286;48.098;11.590;2022-11-13T01:22:28;58.10;;;17.88;;
60432;SDS011;46286;48.098;11.590;2022-11-13T01:24:54;62.33;;;18.25;;
60432;SDS011;46286;48.098;11.590;2022-11-13T01:27:19;59.40;;;18.98;;
60432;SDS011;46286;48.098;11.590;2022-11-13T01:29:45;68.50;;;17.73;;
60432;SDS011;46286;48.098;11.590;2022-11-13T01:32:10;58.83;;;17.65;;
60432;SDS011;46286;48.098;11.590;2022-11-13T01:34:36;56.53;;;16.88;;
60432;SDS011;46286;48.098;11.590;2022-11-13T01:37:01;50.75;;;16.35;;
60432;SDS011;46286;48.098;11.590;2022-11-13T01:39:27;58.70;;;16.17;;
60432;SDS011;46286;48.098;11.590;2022-11-13T01:41:53;61.22;;;16.38;;
60432;SDS011;46286;48.098;11.590;2022-11-13T01:44:19;47.88;;;16.55;;
60432;SDS011;46286;48.098;11.590;2022-11-13T01:46:48;87.75;;;15.85;;
60432;SDS011;46286;48.098;11.590;2022-11-13T01:49:23;88.95;;;17.00;;
60432;SDS011;46286;48.098;11.590;2022-11-13T01:52:00;122.55;;;17.42;;
60432;SDS011;46286;48.098;11.590;2022-11-13T01:54:28;55.15;;;16.33;;
60432;SDS011;46286;48.098;11.590;2022-11-13T01:56:57;50.70;;;15.43;;
60432;SDS011;46286;48.098;11.590;2022-11-13T01:59:34;84.28;;;15.77;;
60432;SDS011;46286;48.098;11.590;2022-11-13T02:02:02;70.63;;;15.63;;
60432;SDS011;46286;48.098;11.590;2022-11-13T02:04:29;46.78;;;14.77;;
60432;SDS011;46286;48.098;11.590;2022-11-13T02:06:56;47.00;;;14.32;;
60432;SDS011;46286;48.098;11.590;2022-11-13T02:09:25;67.57;;;14.90;;
60432;SDS011;46286;48.098;11.590;2022-11-13T02:11:53;63.03;;;14.93;;
60432;SDS011;46286;48.098;11.590;2022-11-13T02:14:19;55.03;;;14.48;;
60432;SDS011;46286;48.098;11.590;2022-11-13T02:16:47;69.68;;;15.48;;
60432;SDS011;46286;48.098;11.590;2022-11-13T02:19:22;62.38;;;14.63;;
60432;SDS011;46286;48.098;11.590;2022-11-13T02:26:48;39.63;;;14.90;;
60432;SDS011;46286;48.098;11.590;2022-11-13T02:29:16;83.10;;;14.88;;
60432;SDS011;46286;48.098;11.590;2022-11-13T02:31:41;110.93;;;14.43;;
60432;SDS011;46286;48.098;11.590;2022-11-13T02:34:07;42.85;;;13.63;;
60432;SDS011;46286;48.098;11.590;2022-11-13T02:36:32;53.17;;;14.18;;
60432;SDS011;46286;48.098;11.590;2022-11-13T02:39:00;39.40;;;13.32;;
60432;SDS011;46286;48.098;11.590;2022-11-13T02:41:30;52.38;;;14.23;;
60432;SDS011;46286;48.098;11.590;2022-11-13T02:43:56;59.45;;;15.07;;
60432;SDS011;46286;48.098;11.590;2022-11-13T02:46:21;49.10;;;14.85;;
60432;SDS011;46286;48.098;11.590;2022-11-13T02:48:47;61.92;;;15.73;;
60432;SDS011;46286;48.098;11.590;2022-11-13T02:51:12;60.22;;;16.15;;
60432;SDS011;46286;48.098;11.590;2022-11-13T02:53:38;65.28;;;16.55;;
60432;SDS011;46286;48.098;11.590;2022-11-13T02:56:04;75.95;;;16.35;;
60432;SDS011;46286;48.098;11.590;2022-11-13T02:58:30;45.10;;;16.23;;
60432;SDS011;46286;48.098;11.590;2022-11-13T03:00:55;81.80;;;15.75;;
60432;SDS011;46286;48.098;11.590;2022-11-13T03:03:21;80.80;;;16.25;;
60432;SDS011;46286;48.098;11.590;2022-11-13T03:05:47;71.18;;;16.85;;
60432;SDS011;46286;48.098;11.590;2022-11-13T03:08:14;84.65;;;16.83;;
60432;SDS011;46286;48.098;11.590;2022-11-13T03:10:39;104.05;;;17.00;;
60432;SDS011;46286;48.098;11.590;2022-11-13T03:13:05;48.80;;;16.05;;
60432;SDS011;46286;48.098;11.590;2022-11-13T03:15:32;83.55;;;15.50;;
60432;SDS011;46286;48.098;11.590;2022-11-13T03:18:02;93.97;;;16.50;;
60432;SDS011;46286;48.098;11.590;2022-11-13T03:20:29;117.47;;;17.88;;
60432;SDS011;46286;48.098;11.590;2022-11-13T03:22:55;105.72;;;18.58;;
60432;SDS011;46286;48.098;11.590;2022-11-13T03:25:21;73.93;;;17.92;;
60432;SDS011;46286;48.098;11.590;2022-11-13T03:27:46;86.75;;;16.73;;
60432;SDS011;46286;48.098;11.590;2022-11-13T03:30:11;62.28;;;16.25;;
60432;SDS011;46286;48.098;11.590;2022-11-13T03:32:37;51.10;;;16.58;;
60432;SDS011;46286;48.098;11.590;2022-11-13T03:35:03;42.85;;;15.55;;
60432;SDS011;46286;48.098;11.590;2022-11-13T03:37:29;41.72;;;15.40;;
60432;SDS011;46286;48.098;11.590;2022-11-13T03:39:54;76.70;;;17.20;;
60432;SDS011;46286;48.098;11.590;2022-11-13T03:42:20;80.75;;;17.70;;
60432;SDS011;46286;48.098;11.590;2022-11-13T03:44:45;83.22;;;18.10;;
60432;SDS011;46286;48.098;11.590;2022-11-13T03:47:11;76.00;;;17.02;;
60432;SDS011;46286;48.098;11.590;2022-11-13T03:49:36;59.13;;;16.33;;
60432;SDS011;46286;48.098;11.590;2022-11-13T03:52:02;74.00;;;16.35;;
60432;SDS011;46286;48.098;11.590;2022-11-13T03:54:27;45.90;;;15.65;;
60432;SDS011;46286;48.098;11.590;2022-11-13T03:56:53;78.72;;;15.98;;
60432;SDS011;46286;48.098;11.590;2022-11-13T03:59:18;111.00;;;17.17;;
60432;SDS011;46286;48.098;11.590;2022-11-13T04:01:44;60.25;;;16.38;;
60432;SDS011;46286;48.098;11.590;2022-11-13T04:04:09;82.63;;;17.35;;
60432;SDS011;46286;48.098;11.590;2022-11-13T04:06:35;79.70;;;16.98;;
60432;SDS011;46286;48.098;11.590;2022-11-13T04:09:00;66.20;;;15.98;;
60432;SDS011;46286;48.098;11.590;2022-11-13T04:11:26;45.08;;;15.40;;
60432;SDS011;46286;48.098;11.590;2022-11-13T04:13:52;64.32;;;16.73;;
60432;SDS011;46286;48.098;11.590;2022-11-13T04:16:17;67.07;;;16.75;;
60432;SDS011;46286;48.098;11.590;2022-11-13T04:18:43;90.57;;;15.52;;
60432;SDS011;46286;48.098;11.590;2022-11-13T04:21:08;67.43;;;14.90;;
60432;SDS011;46286;48.098;11.590;2022-11-13T04:23:34;140.68;;;15.50;;
60432;SDS011;46286;48.098;11.590;2022-11-13T04:25:59;81.90;;;16.52;;
60432;SDS011;46286;48.098;11.590;2022-11-13T04:28:25;98.03;;;15.25;;
60432;SDS011;46286;48.098;11.590;2022-11-13T04:30:52;69.20;;;14.55;;
60432;SDS011;46286;48.098;11.590;2022-11-13T04:33:18;75.25;;;14.85;;
60432;SDS011;46286;48.098;11.590;2022-11-13T04:35:44;59.45;;;15.60;;
60432;SDS011;46286;48.098;11.590;2022-11-13T04:38:10;48.80;;;14.68;;
60432;SDS011;46286;48.098;11.590;2022-11-13T04:40:37;55.30;;;15.43;;
60432;SDS011;46286;48.098;11.590;2022-11-13T04:43:03;61.40;;;14.02;;
60432;SDS011;46286;48.098;11.590;2022-11-13T04:45:28;67.97;;;14.93;;
60432;SDS011;46286;48.098;11.590;2022-11-13T04:47:54;44.30;;;13.73;;
60432;SDS011;46286;48.098;11.590;2022-11-13T04:50:20;60.80;;;15.13;;
60432;SDS011;46286;48.098;11.590;2022-11-13T04:52:46;67.38;;;15.07;;
60432;SDS011;46286;48.098;11.590;2022-11-13T04:55:11;41.78;;;13.98;;
60432;SDS011;46286;48.098;11.590;2022-11-13T04:57:37;64.78;;;14.90;;
60432;SDS011;46286;48.098;11.590;2022-11-13T05:00:03;43.65;;;13.52;;
60432;SDS011;46286;48.098;11.590;2022-11-13T05:02:30;44.85;;;13.70;;
60432;SDS011;46286;48.098;11.590;2022-11-13T05:04:56;45.72;;;13.50;;
60432;SDS011;46286;48.098;11.590;2022-11-13T05:07:21;60.83;;;13.88;;
60432;SDS011;46286;48.098;11.590;2022-11-13T05:09:47;78.78;;;14.80;;
60432;SDS011;46286;48.098;11.590;2022-11-13T05:12:12;65.30;;;14.50;;
60432;SDS011;46286;48.098;11.590;2022-11-13T05:14:38;43.10;;;13.60;;
60432;SDS011;46286;48.098;11.590;2022-11-13T05:17:05;41.53;;;13.48;;
60432;SDS011;46286;48.098;11.590;2022-11-13T05:19:33;44.72;;;13.70;;
60432;SDS011;46286;48.098;11.590;2022-11-13T05:21:58;32.78;;;13.35;;
60432;SDS011;46286;48.098;11.590;2022-11-13T05:24:24;34.08;;;14.43;;
60432;SDS011;46286;48.098;11.590;2022-11-13T05:26:50;33.22;;;14.27;;
60432;SDS011;46286;48.098;11.590;2022-11-13T05:29:16;38.85;;;13.70;;
60432;SDS011;46286;48.098;11.590;2022-11-13T05:31:41;77.18;;;14.88;;
60432;SDS011;46286;48.098;11.590;2022-11-13T05:34:07;86.90;;;15.02;;
60432;SDS011;46286;48.098;11.590;2022-11-13T05:36:33;48.90;;;14.05;;
60432;SDS011;46286;48.098;11.590;2022-11-13T05:38:59;54.75;;;13.32;;
60432;SDS011;46286;48.098;11.590;2022-11-13T05:41:25;66.07;;;13.70;;
60432;SDS011;46286;48.098;11.590;2022-11-13T05:43:51;47.75;;;12.07;;
60432;SDS011;46286;48.098;11.590;2022-11-13T05:46:18;36.58;;;13.05;;
60432;SDS011;46286;48.098;11.590;2022-11-13T05:48:45;56.33;;;13.18;;
60432;SDS011;46286;48.098;11.590;2022-11-13T05:53:39;62.30;;;12.88;;
60432;SDS011;46286;48.098;11.590;2022-11-13T05:56:12;36.60;;;11.73;;
60432;SDS011;46286;48.098;11.590;2022-11-13T05:58:39;67.07;;;13.00;;
60432;SDS011;46286;48.098;11.590;2022-11-13T06:01:07;59.85;;;13.63;;
60432;SDS011;46286;48.098;11.590;2022-11-13T06:03:35;57.20;;;13.40;;
60432;SDS011;46286;48.098;11.590;2022-11-13T06:06:01;28.67;;;12.63;;
60432;SDS011;46286;48.098;11.590;2022-11-13T06:08:26;52.47;;;12.68;;
60432;SDS011;46286;48.098;11.590;2022-11-13T06:10:52;39.17;;;12.82;;
60432;SDS011;46286;48.098;11.590;2022-11-13T06:13:23;44.65;;;12.80;;
60432;SDS011;46286;48.098;11.590;2022-11-13T06:15:49;36.75;;;13.82;;
60432;SDS011;46286;48.098;11.590;2022-11-13T06:18:14;46.97;;;14.32;;
60432;SDS011;46286;48.098;11.590;2022-11-13T06:20:40;41.28;;;14.07;;
60432;SDS011;46286;48.098;11.590;2022-11-13T06:23:05;33.30;;;13.10;;
60432;SDS011;46286;48.098;11.590;2022-11-13T06:25:30;42.83;;;13.88;;
60432;SDS011;46286;48.098;11.590;2022-11-13T06:27:56;75.20;;;13.95;;
60432;SDS011;46286;48.098;11.590;2022-11-13T06:30:21;73.10;;;14.95;;
60432;SDS011;46286;48.098;11.590;2022-11-13T06:32:50;49.20;;;13.02;;
60432;SDS011;46286;48.098;11.590;2022-11-13T06:35:17;32.88;;;13.63;;
60432;SDS011;46286;48.098;11.590;2022-11-13T06:37:43;36.50;;;13.85;;
60432;SDS011;46286;48.098;11.590;2022-11-13T06:40:08;40.47;;;13.65;;
60432;SDS011;46286;48.098;11.590;2022-11-13T06:42:34;33.40;;;13.15;;
60432;SDS011;46286;48.098;11.590;2022-11-13T06:44:59;34.33;;;12.52;;
60432;SDS011;46286;48.098;11.590;2022-11-13T06:47:25;44.58;;;12.20;;
60432;SDS011;46286;48.098;11.590;2022-11-13T06:49:52;36.63;;;14.00;;
60432;SDS011;46286;48.098;11.590;2022-11-13T06:52:17;55.58;;;13.98;;
60432;SDS011;46286;48.098;11.590;2022-11-13T06:54:43;47.92;;;14.68;;
60432;SDS011;46286;48.098;11.590;2022-11-13T06:57:08;44.17;;;13.65;;
60432;SDS011;46286;48.098;11.590;2022-11-13T06:59:34;29.52;;;12.93;;
60432;SDS011;46286;48.098;11.590;2022-11-13T07:01:59;44.30;;;14.55;;
60432;SDS011;46286;48.098;11.590;2022-11-13T07:04:25;49.25;;;14.80;;
60432;SDS011;46286;48.098;11.590;2022-11-13T07:06:50;32.60;;;12.90;;
60432;SDS011;46286;48.098;11.590;2022-11-13T07:09:16;45.20;;;13.65;;
60432;SDS011;46286;48.098;11.590;2022-11-13T07:11:41;43.00;;;13.65;;
60432;SDS011;46286;48.098;11.590;2022-11-13T07:14:08;58.28;;;13.07;;
60432;SDS011;46286;48.098;11.590;2022-11-13T07:16:35;36.97;;;12.73;;
60432;SDS011;46286;48.098;11.590;2022-11-13T07:19:00;41.42;;;14.25;;
60432;SDS011;46286;48.098;11.590;2022-11-13T07:21:26;38.65;;;13.93;;
60432;SDS011;46286;48.098;11.590;2022-11-13T07:23:51;59.45;;;14.73;;
60432;SDS011;46286;48.098;11.590;2022-11-13T07:26:17;43.92;;;14.88;;
60432;SDS011;46286;48.098;11.590;2022-11-13T07:28:43;44.90;;;14.57;;
60432;SDS011;46286;48.098;11.590;2022-11-13T07:31:10;42.72;;;14.65;;
60432;SDS011;46286;48.098;11.590;2022-11-13T07:33:37;33.47;;;13.63;;
60432;SDS011;46286;48.098;11.590;2022-11-13T07:36:02;32.83;;;13.70;;
60432;SDS011;46286;48.098;11.590;2022-11-13T07:38:28;33.88;;;12.82;;
60432;SDS011;46286;48.098;11.590;2022-11-13T07:40:54;34.83;;;12.32;;
60432;SDS011;46286;48.098;11.590;2022-11-13T07:43:22;34.58;;;12.38;;
60432;SDS011;46286;48.098;11.590;2022-11-13T07:45:48;62.20;;;14.02;;
60432;SDS011;46286;48.098;11.590;2022-11-13T07:48:18;30.35;;;12.60;;
60432;SDS011;46286;48.098;11.590;2022-11-13T07:50:45;45.78;;;13.13;;
60432;SDS011;46286;48.098;11.590;2022-11-13T07:53:11;24.00;;;11.05;;
60432;SDS011;46286;48.098;11.590;2022-11-13T07:55:36;51.22;;;11.75;;
60432;SDS011;46286;48.098;11.590;2022-11-13T07:58:02;30.55;;;12.18;;
60432;SDS011;46286;48.098;11.590;2022-11-13T08:00:30;44.88;;;12.93;;
60432;SDS011;46286;48.098;11.590;2022-11-13T08:02:57;41.72;;;11.18;;
60432;SDS011;46286;48.098;11.590;2022-11-13T08:05:23;29.35;;;12.05;;
60432;SDS011;46286;48.098;11.590;2022-11-13T08:07:49;42.03;;;12.68;;
60432;SDS011;46286;48.098;11.590;2022-11-13T08:10:17;54.30;;;12.90;;
60432;SDS011;46286;48.098;11.590;2022-11-13T08:12:44;38.10;;;12.73;;
60432;SDS011;46286;48.098;11.590;2022-11-13T08:15:10;32.45;;;12.57;;
60432;SDS011;46286;48.098;11.590;2022-11-13T08:17:36;31.73;;;13.05;;
60432;SDS011;46286;48.098;11.590;2022-11-13T08:20:02;23.02;;;11.43;;
60432;SDS011;46286;48.098;11.590;2022-11-13T08:22:28;24.17;;;11.80;;
60432;SDS011;46286;48.098;11.590;2022-11-13T08:24:54;20.80;;;10.75;;
60432;SDS011;46286;48.098;11.590;2022-11-13T08:27:20;24.63;;;11.77;;
60432;SDS011;46286;48.098;11.590;2022-11-13T08:29:47;26.33;;;11.75;;
60432;SDS011;46286;48.098;11.590;2022-11-13T08:32:14;26.45;;;10.82;;
60432;SDS011;46286;48.098;11.590;2022-11-13T08:34:40;30.10;;;12.55;;
60432;SDS011;46286;48.098;11.590;2022-11-13T08:37:06;27.75;;;12.18;;
60432;SDS011;46286;48.098;11.590;2022-11-13T08:39:31;25.33;;;11.32;;
60432;SDS011;46286;48.098;11.590;2022-11-13T08:41:59;38.30;;;13.38;;
60432;SDS011;46286;48.098;11.590;2022-11-13T08:44:29;32.50;;;14.27;;
60432;SDS011;46286;48.098;11.590;2022-11-13T08:46:54;30.75;;;13.40;;
60432;SDS011;46286;48.098;11.590;2022-11-13T08:49:20;27.25;;;12.57;;
60432;SDS011;46286;48.098;11.590;2022-11-13T08:51:45;26.30;;;13.27;;
60432;SDS011;46286;48.098;11.590;2022-11-13T08:54:11;28.08;;;12.45;;
60432;SDS011;46286;48.098;11.590;2022-11-13T08:56:36;30.60;;;12.70;;
60432;SDS011;46286;48.098;11.590;2022-11-13T08:59:02;25.92;;;12.75;;
60432;SDS011;46286;48.098;11.590;2022-11-13T09:01:28;25.15;;;11.48;;
60432;SDS011;46286;48.098;11.590;2022-11-13T09:03:53;23.23;;;11.48;;
60432;SDS011;46286;48.098;11.590;2022-11-13T09:06:19;26.10;;;11.68;;
60432;SDS011;46286;48.098;11.590;2022-11-13T09:08:44;25.33;;;12.13;;
60432;SDS011;46286;48.098;11.590;2022-11-13T09:11:10;28.58;;;12.52;;
60432;SDS011;46286;48.098;11.590;2022-11-13T09:13:35;24.42;;;11.35;;
60432;SDS011;46286;48.098;11.590;2022-11-13T09:16:01;27.42;;;11.65;;
60432;SDS011;46286;48.098;11.590;2022-11-13T09:18:27;24.10;;;12.00;;
60432;SDS011;46286;48.098;11.590;2022-11-13T09:20:53;26.63;;;11.40;;
60432;SDS011;46286;48.098;11.590;2022-11-13T09:23:20;27.85;;;13.32;;
60432;SDS011;46286;48.098;11.590;2022-11-13T09:25:45;26.88;;;12.65;;
60432;SDS011;46286;48.098;11.590;2022-11-13T09:28:11;27.58;;;11.85;;
60432;SDS011;46286;48.098;11.590;2022-11-13T09:30:38;28.25;;;12.95;;
60432;SDS011;46286;48.098;11.590;2022-11-13T09:33:04;31.40;;;13.02;;
60432;SDS011;46286;48.098;11.590;2022-11-13T09:35:30;31.80;;;12.25;;
60432;SDS011;46286;48.098;11.590;2022-11-13T09:38:06;29.40;;;12.85;;
60432;SDS011;46286;48.098;11.590;2022-11-13T09:43:27;25.92;;;10.90;;
60432;SDS011;46286;48.098;11.590;2022-11-13T09:48:47;27.92;;;13.38;;
60432;SDS011;46286;48.098;11.590;2022-11-13T09:51:28;26.65;;;12.60;;
60432;SDS011;46286;48.098;11.590;2022-11-13T09:53:57;27.73;;;12.60;;
60432;SDS011;46286;48.098;11.590;2022-11-13T09:56:33;32.70;;;13.18;;
60432;SDS011;46286;48.098;11.590;2022-11-13T10:05:38;27.60;;;13.10;;
60432;SDS011;46286;48.098;11.590;2022-11-13T10:10:28;27.88;;;12.80;;
60432;SDS011;46286;48.098;11.590;2022-11-13T10:13:16;26.98;;;12.88;;
60432;SDS011;46286;48.098;11.590;2022-11-13T10:15:47;25.60;;;12.50;;
60432;SDS011;46286;48.098;11.590;2022-11-13T10:18:20;27.05;;;12.48;;
60432;SDS011;46286;48.098;11.590;2022-11-13T10:20:51;29.35;;;13.57;;
60432;SDS011;46286;48.098;11.590;2022-11-13T10:23:31;26.75;;;13.48;;
60432;SDS011;46286;48.098;11.590;2022-11-13T10:26:06;26.90;;;13.50;;
60432;SDS011;46286;48.098;11.590;2022-11-13T10:28:38;26.85;;;13.07;;
60432;SDS011;46286;48.098;11.590;2022-11-13T10:31:08;26.98;;;12.52;;
60432;SDS011;46286;48.098;11.590;2022-11-13T10:33:35;29.35;;;13.50;;
60432;SDS011;46286;48.098;11.590;2022-11-13T10:36:07;30.58;;;14.07;;
60432;SDS011;46286;48.098;11.590;2022-11-13T10:38:39;28.17;;;13.63;;
60432;SDS011;46286;48.098;11.590;2022-11-13T10:41:15;26.92;;;13.93;;
60432;SDS011;46286;48.098;11.590;2022-11-13T10:44:00;27.60;;;12.63;;
60432;SDS011;46286;48.098;11.590;2022-11-13T10:46:31;28.38;;;13.02;;
60432;SDS011;46286;48.098;11.590;2022-11-13T10:48:57;27.50;;;13.05;;
60432;SDS011;46286;48.098;11.590;2022-11-13T10:51:35;27.17;;;13.55;;
60432;SDS011;46286;48.098;11.590;2022-11-13T10:54:10;27.33;;;12.40;;
60432;SDS011;46286;48.098;11.590;2022-11-13T10:57:01;25.58;;;13.30;;
60432;SDS011;46286;48.098;11.590;2022-11-13T10:59:43;28.00;;;12.90;;
60432;SDS011;46286;48.098;11.590;2022-11-13T11:04:41;27.90;;;13.57;;
60432;SDS011;46286;48.098;11.590;2022-11-13T11:07:17;25.80;;;12.75;;
60432;SDS011;46286;48.098;11.590;2022-11-13T11:09:44;24.23;;;12.00;;
60432;SDS011;46286;48.098;11.590;2022-11-13T11:12:23;26.08;;;12.98;;
60432;SDS011;46286;48.098;11.590;2022-11-13T11:17:24;23.55;;;12.60;;
60432;SDS011;46286;48.098;11.590;2022-11-13T11:20:15;27.42;;;13.10;;
60432;SDS011;46286;48.098;11.590;2022-11-13T11:22:49;27.53;;;12.43;;
60432;SDS011;46286;48.098;11.590;2022-11-13T11:25:25;24.98;;;12.60;;
60432;SDS011;46286;48.098;11.590;2022-11-13T11:27:59;26.38;;;12.27;;
60432;SDS011;46286;48.098;11.590;2022-11-13T11:30:33;36.50;;;16.70;;
60432;SDS011;46286;48.098;11.590;2022-11-13T11:33:12;23.70;;;11.30;;
60432;SDS011;46286;48.098;11.590;2022-11-13T11:35:49;21.38;;;11.65;;
60432;SDS011;46286;48.098;11.590;2022-11-13T11:38:25;21.55;;;10.60;;
60432;SDS011;46286;48.098;11.590;2022-11-13T11:40:52;22.65;;;11.85;;
60432;SDS011;46286;48.098;11.590;2022-11-13T11:43:36;22.60;;;12.35;;
60432;SDS011;46286;48.098;11.590;2022-11-13T11:46:09;22.92;;;11.75;;
60432;SDS011;46286;48.098;11.590;2022-11-13T11:48:37;19.60;;;10.88;;
60432;SDS011;46286;48.098;11.590;2022-11-13T11:51:21;19.23;;;10.82;;
60432;SDS011;46286;48.098;11.590;2022-11-13T11:57:09;17.13;;;9.95;;
60432;SDS011;46286;48.098;11.590;2022-11-13T12:00:01;18.10;;;9.82;;
60432;SDS011;46286;48.098;11.590;2022-11-13T12:05:28;19.55;;;10.13;;
60432;SDS011;46286;48.098;11.590;2022-11-13T12:26:31;18.33;;;10.10;;
60432;SDS011;46286;48.098;11.590;2022-11-13T12:29:12;16.73;;;10.07;;
60432;SDS011;46286;48.098;11.590;2022-11-13T12:32:07;17.25;;;10.25;;
60432;SDS011;46286;48.098;11.590;2022-11-13T12:34:39;20.13;;;10.85;;
60432;SDS011;46286;48.098;11.590;2022-11-13T12:37:10;19.70;;;11.07;;
60432;SDS011;46286;48.098;11.590;2022-11-13T12:47:48;20.73;;;10.52;;
60432;SDS011;46286;48.098;11.590;2022-11-13T12:52:57;21.40;;;10.32;;
60432;SDS011;46286;48.098;11.590;2022-11-13T12:55:25;18.92;;;10.35;;
60432;SDS011;46286;48.098;11.590;2022-11-13T12:57:52;18.13;;;10.40;;
60432;SDS011;46286;48.098;11.590;2022-11-13T13:00:23;16.73;;;10.60;;
60432;SDS011;46286;48.098;11.590;2022-11-13T13:05:46;16.88;;;9.35;;
60432;SDS011;46286;48.098;11.590;2022-11-13T13:08:21;15.02;;;7.90;;
60432;SDS011;46286;48.098;11.590;2022-11-13T13:11:16;13.90;;;8.00;;
60432;SDS011;46286;48.098;11.590;2022-11-13T13:14:39;14.38;;;8.15;;
60432;SDS011;46286;48.098;11.590;2022-11-13T13:19:39;11.65;;;6.85;;
60432;SDS011;46286;48.098;11.590;2022-11-13T13:22:11;14.40;;;7.40;;
60432;SDS011;46286;48.098;11.590;2022-11-13T13:25:05;14.90;;;7.60;;
60432;SDS011;46286;48.098;11.590;2022-11-13T13:27:59;12.88;;;6.85;;
60432;SDS011;46286;48.098;11.590;2022-11-13T13:30:25;11.82;;;7.10;;
60432;SDS011;46286;48.098;11.590;2022-11-13T13:33:04;11.13;;;6.78;;
60432;SDS011;46286;48.098;11.590;2022-11-13T13:35:54;11.45;;;6.53;;
60432;SDS011;46286;48.098;11.590;2022-11-13T13:41:33;10.50;;;6.25;;
60432;SDS011;46286;48.098;11.590;2022-11-13T13:44:08;11.05;;;6.45;;
60432;SDS011;46286;48.098;11.590;2022-11-13T13:46:43;11.57;;;6.88;;
60432;SDS011;46286;48.098;11.590;2022-11-13T13:49:13;13.50;;;7.22;;
60432;SDS011;46286;48.098;11.590;2022-11-13T13:51:43;12.77;;;6.97;;
60432;SDS011;46286;48.098;11.590;2022-11-13T13:54:14;11.40;;;6.75;;
60432;SDS011;46286;48.098;11.590;2022-11-13T13:56:44;10.55;;;6.32;;
60432;SDS011;46286;48.098;11.590;2022-11-13T13:59:14;10.25;;;6.30;;
60432;SDS011;46286;48.098;11.590;2022-11-13T14:01:51;10.32;;;6.05;;
60432;SDS011;46286;48.098;11.590;2022-11-13T14:04:22;12.45;;;6.57;;
60432;SDS011;46286;48.098;11.590;2022-11-13T14:06:51;10.95;;;6.25;;
60432;SDS011;46286;48.098;11.590;2022-11-13T14:09:25;13.52;;;6.97;;
60432;SDS011;46286;48.098;11.590;2022-11-13T14:12:02;13.80;;;6.65;;
60432;SDS011;46286;48.098;11.590;2022-11-13T14:14:40;11.25;;;6.40;;
60432;SDS011;46286;48.098;11.590;2022-11-13T14:17:07;11.32;;;6.20;;
60432;SDS011;46286;48.098;11.590;2022-11-13T14:19:34;12.02;;;6.82;;
60432;SDS011;46286;48.098;11.590;2022-11-13T14:22:01;12.00;;;6.85;;
60432;SDS011;46286;48.098;11.590;2022-11-13T14:26:58;10.20;;;6.40;;
60432;SDS011;46286;48.098;11.590;2022-11-13T14:29:36;12.82;;;6.90;;
60432;SDS011;46286;48.098;11.590;2022-11-13T14:32:08;9.20;;;5.57;;
60432;SDS011;46286;48.098;11.590;2022-11-13T14:34:37;11.63;;;6.75;;
60432;SDS011;46286;48.098;11.590;2022-11-13T14:37:21;12.23;;;6.53;;
60432;SDS011;46286;48.098;11.590;2022-11-13T14:39:47;10.50;;;5.95;;
60432;SDS011;46286;48.098;11.590;2022-11-13T14:45:14;10.68;;;6.28;;
60432;SDS011;46286;48.098;11.590;2022-11-13T14:48:00;13.52;;;6.60;;
60432;SDS011;46286;48.098;11.590;2022-11-13T14:50:29;10.73;;;6.60;;
60432;SDS011;46286;48.098;11.590;2022-11-13T14:53:08;11.63;;;6.20;;
60432;SDS011;46286;48.098;11.590;2022-11-13T14:55:48;11.50;;;6.13;;
60432;SDS011;46286;48.098;11.590;2022-11-13T14:58:37;9.95;;;5.88;;
60432;SDS011;46286;48.098;11.590;2022-11-13T15:01:12;11.95;;;6.43;;
60432;SDS011;46286;48.098;11.590;2022-11-13T15:03:40;12.02;;;6.55;;
60432;SDS011;46286;48.098;11.590;2022-11-13T15:06:17;10.30;;;5.97;;
60432;SDS011;46286;48.098;11.590;2022-11-13T15:08:45;14.65;;;7.57;;
60432;SDS011;46286;48.098;11.590;2022-11-13T15:11:13;14.00;;;7.05;;
60432;SDS011;46286;48.098;11.590;2022-11-13T15:13:40;10.93;;;6.57;;
60432;SDS011;46286;48.098;11.590;2022-11-13T15:16:06;14.25;;;7.00;;
60432;SDS011;46286;48.098;11.590;2022-11-13T15:18:37;14.27;;;6.68;;
60432;SDS011;46286;48.098;11.590;2022-11-13T15:21:02;11.63;;;6.65;;
60432;SDS011;46286;48.098;11.590;2022-11-13T15:23:28;11.93;;;6.80;;
60432;SDS011;46286;48.098;11.590;2022-11-13T15:25:53;13.52;;;6.88;;
60432;SDS011;46286;48.098;11.590;2022-11-13T15:28:19;13.10;;;6.65;;
60432;SDS011;46286;48.098;11.590;2022-11-13T15:30:44;13.00;;;6.50;;
60432;SDS011;46286;48.098;11.590;2022-11-13T15:33:13;11.75;;;7.10;;
60432;SDS011;46286;48.098;11.590;2022-11-13T15:35:41;12.80;;;7.25;;
60432;SDS011;46286;48.098;11.590;2022-11-13T15:38:08;21.95;;;12.63;;